Аэропорт: Сары-Арка. Караганда

ICAO: UAKK

METAR:
2019-07-23 18:30:00
UAKK 231830Z 24003MPS 9000 BKN017CB 15/14 Q1007 R23/1///65 NOSIG RMK QFE709/0945
METAR:
2019-07-23 17:00:00
TAF UAKK 231700Z 2318/2418 VRB02MPS 5000 BR SCT030CB BKN100 TX26/2410Z TN10/2323Z TEMPO 2318/2402 1000 -SHRA BR BKN004 BKN015CB BECMG 2402/2404 29006MPS 9999 NSW TEMPO 2406/2415 29010MPS 3100 TSRA BKN020CB BECMG 2415/2417 VRB02MPS